Time;durP1;ratioP1;P1;durP2;ratioP2;P2;SDS_P1;SDS_P2;PMS_P1;PMS_P2;Temp;Humidity;BMP_temperature;BMP_pressure;BME280_temperature;BME280_humidity;BME280_pressure;Samples;Min_cycle;Max_cycle;Signal;HPM_P1;HPM_P2
2022/09/26 00:00:17;;;;;;;21.42;12.23;;;;;;;17.03;65.74;98034.94;4487145;32;20085;-82
2022/09/26 00:02:43;;;;;;;20.02;11.73;;;;;;;16.88;66.01;98027.41;4486980;32;20140;-82
2022/09/26 00:05:10;;;;;;;19.27;11.55;;;;;;;17.00;65.77;98019.28;4487126;32;20085;-89
2022/09/26 00:07:35;;;;;;;20.33;11.45;;;;;;;16.99;65.83;98017.59;4487361;32;20092;-80
2022/09/26 00:10:01;;;;;;;18.90;11.45;;;;;;;17.03;65.79;98016.31;4487468;32;20113;-80
2022/09/26 00:12:26;;;;;;;19.25;11.38;;;;;;;17.08;65.70;98017.56;4487245;32;20107;-80
2022/09/26 00:14:52;;;;;;;19.35;10.70;;;;;;;17.03;65.97;98017.16;4487066;32;20096;-80
2022/09/26 00:17:17;;;;;;;20.48;11.50;;;;;;;17.13;65.88;98021.63;4487210;32;20435;-80
2022/09/26 00:19:43;;;;;;;20.50;11.07;;;;;;;17.11;65.91;98008.44;4486838;32;20130;-80
2022/09/26 00:22:08;;;;;;;19.40;11.70;;;;;;;17.13;65.81;98008.31;4486662;32;20408;-80
2022/09/26 00:24:33;;;;;;;19.37;11.25;;;;;;;17.08;65.77;98012.25;4486909;32;20080;-80
2022/09/26 00:26:59;;;;;;;17.87;11.35;;;;;;;17.15;65.51;98017.00;4486937;32;20159;-80
2022/09/26 00:29:24;;;;;;;18.75;11.07;;;;;;;17.19;65.33;98018.38;4486904;32;20096;-81
2022/09/26 00:31:51;;;;;;;19.00;10.98;;;;;;;17.20;65.38;98007.59;4486985;32;20496;-80
2022/09/26 00:34:17;;;;;;;20.25;11.30;;;;;;;17.23;65.36;98003.78;4486933;32;20088;-80
2022/09/26 00:36:43;;;;;;;19.00;11.32;;;;;;;17.20;65.42;97990.78;4486792;32;20456;-80
2022/09/26 00:39:12;;;;;;;19.35;11.52;;;;;;;17.21;65.35;97990.66;4472563;32;20116;-80
2022/09/26 00:41:37;;;;;;;22.95;12.43;;;;;;;17.10;65.61;97991.66;4472626;32;20467;-81
2022/09/26 00:44:43;;;;;;;18.85;11.15;;;;;;;17.15;65.50;97985.06;4472577;32;20076;-81
2022/09/26 00:47:37;;;;;;;20.33;12.55;;;;;;;17.18;65.38;97985.59;4472753;32;20112;-81
2022/09/26 00:50:09;;;;;;;18.42;10.85;;;;;;;17.10;65.66;97989.00;4464796;32;20638;-81
2022/09/26 00:52:42;;;;;;;19.33;11.52;;;;;;;17.11;65.60;97979.19;4486617;32;20084;-81
2022/09/26 00:55:10;;;;;;;19.80;11.35;;;;;;;17.08;65.71;97980.31;4459686;32;20495;-80
2022/09/26 00:57:46;;;;;;;19.65;12.18;;;;;;;17.09;65.68;97979.34;4459649;32;20092;-81
2022/09/26 01:00:13;;;;;;;21.73;12.15;;;;;;;17.13;65.56;97969.22;4486535;32;20093;-81
2022/09/26 01:02:40;;;;;;;20.92;12.37;;;;;;;17.14;65.53;97964.75;4472570;32;20147;-80
2022/09/26 01:05:06;;;;;;;20.80;12.00;;;;;;;17.04;65.75;97957.66;4472277;32;20454;-80
2022/09/26 01:07:32;;;;;;;21.65;12.60;;;;;;;17.10;65.62;97954.41;4472280;32;20104;-81
2022/09/26 01:09:58;;;;;;;20.37;12.13;;;;;;;17.06;65.71;97952.19;4486507;32;20148;-80
2022/09/26 01:12:23;;;;;;;21.55;12.90;;;;;;;17.08;65.73;97951.03;4472196;32;20115;-80
2022/09/26 01:14:53;;;;;;;20.10;12.20;;;;;;;17.14;65.60;97952.28;4472067;32;20124;-80
2022/09/26 01:17:20;;;;;;;19.70;12.32;;;;;;;17.18;65.59;97952.84;4472379;32;20108;-81
2022/09/26 01:20:10;;;;;;;21.13;12.73;;;;;;;17.15;65.68;97959.28;4486679;32;20096;-81
2022/09/26 01:22:38;;;;;;;21.52;12.95;;;;;;;17.03;65.94;97958.63;4486506;32;20641;-80
2022/09/26 01:25:24;;;;;;;21.65;12.73;;;;;;;17.09;65.83;97950.06;4486142;32;20119;-81
2022/09/26 01:28:15;;;;;;;23.02;13.35;;;;;;;17.18;65.66;97947.50;4472158;32;20109;-80
2022/09/26 01:30:43;;;;;;;20.05;10.98;;;;;;;17.16;65.77;97952.97;4486986;32;20092;-80
2022/09/26 01:33:14;;;;;;;22.45;13.32;;;;;;;17.21;65.68;97944.53;4473811;32;20103;-81
2022/09/26 01:35:55;;;;;;;23.33;12.77;;;;;;;17.13;65.90;97936.47;4488246;32;20085;-81
2022/09/26 01:38:44;;;;;;;21.95;12.75;;;;;;;17.07;65.92;97933.41;4488134;32;20159;-80
2022/09/26 01:41:12;;;;;;;;;;;;;;;17.17;65.75;97937.84;4474169;32;20152;-80
2022/09/26 01:43:53;;;;;;;22.20;12.63;;;;;;;17.26;65.50;97943.13;4488165;32;20008;-80
2022/09/26 01:46:28;;;;;;;21.67;12.93;;;;;;;17.29;65.47;97936.69;4488270;32;20094;-81
2022/09/26 01:49:00;;;;;;;20.15;11.68;;;;;;;17.28;65.53;97921.69;4473979;32;20119;-80
2022/09/26 01:51:32;;;;;;;21.40;12.68;;;;;;;17.27;65.55;97928.00;4474008;32;20092;-81
2022/09/26 01:54:01;;;;;;;19.98;11.60;;;;;;;17.28;65.52;97925.19;4473936;32;20163;-80
2022/09/26 01:56:29;;;;;;;19.95;12.43;;;;;;;17.29;65.37;97924.22;4460650;32;20080;-80
2022/09/26 01:59:05;;;;;;;;;;;;;;;17.29;65.42;97907.41;4488253;32;20165;-81
2022/09/26 02:01:35;;;;;;;20.67;12.57;;;;;;;17.38;65.21;97903.00;4473884;32;19992;-80
2022/09/26 02:04:07;;;;;;;22.17;13.27;;;;;;;17.34;65.26;97902.44;4488049;32;20081;-81
2022/09/26 02:06:46;;;;;;;21.45;12.30;;;;;;;17.36;65.32;97903.16;4487976;32;20481;-81
2022/09/26 02:09:15;;;;;;;22.15;13.05;;;;;;;17.35;65.41;97904.16;4487993;32;20397;-81
2022/09/26 02:11:43;;;;;;;23.20;13.77;;;;;;;17.34;65.45;97894.47;4473664;32;20104;-81
2022/09/26 02:14:23;;;;;;;23.48;13.13;;;;;;;17.35;65.35;97898.81;4473689;32;20107;-81
2022/09/26 02:16:51;;;;;;;20.70;13.45;;;;;;;17.39;65.32;97899.38;4473572;32;20072;-81
2022/09/26 02:19:25;;;;;;;21.58;13.40;;;;;;;17.38;65.21;97892.34;4487862;32;20119;-81
2022/09/26 02:21:51;;;;;;;20.02;12.93;;;;;;;17.37;65.25;97894.19;4473599;32;20096;-81
2022/09/26 02:24:16;;;;;;;20.90;13.07;;;;;;;17.38;65.18;97881.69;4473611;32;20079;-81
2022/09/26 02:26:42;;;;;;;22.02;13.55;;;;;;;17.43;65.11;97888.25;4473522;32;20084;-81
2022/09/26 02:29:08;;;;;;;23.27;13.73;;;;;;;17.40;65.10;97890.37;4487736;32;20459;-81
2022/09/26 02:31:48;;;;;;;24.37;13.55;;;;;;;17.41;65.08;97900.88;4473643;32;20173;-82
2022/09/26 02:34:13;;;;;;;22.25;13.80;;;;;;;17.39;65.25;97907.34;4473626;32;20084;-82
2022/09/26 02:36:39;;;;;;;23.92;14.10;;;;;;;17.41;65.16;97916.84;4487661;32;20161;-82
2022/09/26 02:39:04;;;;;;;21.62;13.23;;;;;;;17.36;65.18;97912.97;4487727;32;20096;-81
2022/09/26 02:41:39;;;;;;;23.45;14.60;;;;;;;17.39;65.21;97912.69;4460089;32;20100;-82
2022/09/26 02:44:10;;;;;;;22.42;13.07;;;;;;;17.44;65.14;97891.75;4473628;32;20383;-82
2022/09/26 02:47:00;;;;;;;20.33;12.15;;;;;;;17.40;65.32;97890.37;4487622;32;20076;-82
2022/09/26 02:49:37;;;;;;;21.62;12.37;;;;;;;17.39;65.38;97891.38;4487715;32;20112;-82
2022/09/26 02:52:11;;;;;;;21.02;11.95;;;;;;;17.34;65.43;97883.00;4487688;32;20089;-82
2022/09/26 02:55:07;;;;;;;19.95;12.63;;;;;;;17.30;65.55;97880.59;4487688;32;20084;-80
2022/09/26 02:57:32;;;;;;;19.60;12.50;;;;;;;17.34;65.42;97881.16;4487500;32;20135;-80
2022/09/26 03:00:05;;;;;;;21.17;12.40;;;;;;;17.26;65.57;97884.56;4487474;32;20103;-82
2022/09/26 03:02:44;;;;;;;20.67;12.57;;;;;;;17.30;65.57;97877.13;4487543;32;20100;-81
2022/09/26 03:05:23;;;;;;;21.10;12.35;;;;;;;17.33;65.49;97884.00;4487472;32;20100;-82
2022/09/26 03:08:08;;;;;;;22.55;13.02;;;;;;;17.30;65.49;97883.28;4473369;32;20076;-84
2022/09/26 03:10:34;;;;;;;20.85;13.45;;;;;;;17.29;65.46;97884.28;4473284;32;20100;-83
2022/09/26 03:13:06;;;;;;;21.23;13.30;;;;;;;17.36;65.16;97876.53;4473212;32;20104;-83
2022/09/26 03:15:33;;;;;;;21.45;13.23;;;;;;;17.30;65.31;97877.13;4460213;32;20080;-83
2022/09/26 03:18:00;;;;;;;21.50;13.23;;;;;;;17.27;65.29;97872.94;4473137;32;20474;-83
2022/09/26 03:20:25;;;;;;;24.40;14.45;;;;;;;17.23;65.34;97876.03;4473312;32;20109;-82
2022/09/26 03:22:51;;;;;;;21.40;13.57;;;;;;;17.28;65.14;97863.12;4487728;32;20152;-83
2022/09/26 03:25:22;;;;;;;22.37;15.02;;;;;;;17.24;65.30;97859.09;4473298;32;20110;-82
2022/09/26 03:27:48;;;;;;;24.00;15.20;;;;;;;17.20;65.45;97871.03;4473401;32;20123;-82
2022/09/26 03:30:15;;;;;;;23.75;14.45;;;;;;;17.16;65.46;97861.66;4487560;32;20463;-83
2022/09/26 03:32:40;;;;;;;24.55;15.18;;;;;;;17.21;65.23;97862.03;4473061;32;20124;-83
2022/09/26 03:35:07;;;;;;;24.63;15.80;;;;;;;17.17;65.38;97858.84;4487318;32;20069;-83
2022/09/26 03:37:36;;;;;;;25.85;15.57;;;;;;;17.19;65.45;97859.53;4472929;32;20080;-84
2022/09/26 03:40:08;;;;;;;23.25;15.68;;;;;;;17.16;65.51;97837.72;4473360;32;20104;-84
2022/09/26 03:42:34;;;;;;;24.23;16.05;;;;;;;17.18;65.54;97833.06;4473318;32;20120;-84
2022/09/26 03:45:00;;;;;;;23.55;15.27;;;;;;;17.12;65.69;97831.84;4487503;32;20088;-83
2022/09/26 03:47:26;;;;;;;25.42;16.08;;;;;;;17.04;65.94;97829.09;4473032;32;20111;-83
2022/09/26 03:49:52;;;;;;;24.80;15.98;;;;;;;17.05;65.80;97828.09;4487029;32;20124;-84
2022/09/26 03:52:17;;;;;;;24.98;15.52;;;;;;;17.05;65.86;97826.25;4486997;32;20092;-83
2022/09/26 03:54:43;;;;;;;24.27;16.02;;;;;;;17.03;65.94;97822.91;4486485;32;20108;-83
2022/09/26 03:57:11;;;;;;;24.85;16.45;;;;;;;17.03;66.01;97822.91;4487080;32;20106;-83
2022/09/26 03:59:37;;;;;;;25.48;16.60;;;;;;;17.08;65.96;97812.66;4459826;32;20130;-83
2022/09/26 04:02:02;;;;;;;23.60;15.43;;;;;;;17.09;66.00;97811.69;4487115;32;20088;-83
2022/09/26 04:04:28;;;;;;;25.77;15.98;;;;;;;17.06;65.97;97811.97;4472943;32;20097;-83
2022/09/26 04:06:53;;;;;;;25.92;16.58;;;;;;;17.06;66.00;97798.69;4487104;32;20118;-83
2022/09/26 04:09:19;;;;;;;25.83;16.62;;;;;;;17.12;65.71;97793.75;4486908;32;20157;-84
2022/09/26 04:11:45;;;;;;;27.15;18.00;;;;;;;17.09;65.90;97800.19;4487159;32;20101;-82
2022/09/26 04:14:10;;;;;;;25.95;17.33;;;;;;;17.01;66.08;97800.94;4473067;32;20088;-82
2022/09/26 04:16:37;;;;;;;28.33;18.20;;;;;;;17.03;66.22;97800.78;4487149;32;20088;-83
2022/09/26 04:19:03;;;;;;;28.42;18.85;;;;;;;16.97;66.29;97788.91;4487285;32;20631;-83
2022/09/26 04:21:28;;;;;;;28.10;18.20;;;;;;;17.02;66.25;97794.66;4472609;32;20107;-83
2022/09/26 04:23:54;;;;;;;28.45;17.87;;;;;;;17.06;66.15;97789.88;4486970;32;20111;-83
2022/09/26 04:26:20;;;;;;;28.33;19.15;;;;;;;17.06;66.05;97793.34;4486869;32;20111;-83
2022/09/26 04:28:48;;;;;;;29.63;19.50;;;;;;;17.02;66.15;97788.50;4486932;32;20095;-83
2022/09/26 04:31:13;;;;;;;;;;;;;;;16.97;66.37;97801.41;4487291;32;20145;-83
2022/09/26 04:33:38;;;;;;;28.95;18.33;;;;;;;16.84;66.65;97802.59;4472616;32;20008;-82
2022/09/26 04:36:10;;;;;;;28.48;17.62;;;;;;;16.93;66.52;97792.03;4487054;32;20111;-81
2022/09/26 04:38:36;;;;;;;27.83;17.45;;;;;;;16.87;66.78;97790.81;4487190;32;20119;-82
2022/09/26 04:41:03;;;;;;;29.65;18.80;;;;;;;17.01;66.33;97798.28;4472837;32;20100;-81
2022/09/26 04:43:28;;;;;;;26.65;17.25;;;;;;;16.98;66.35;97801.25;4487077;32;20123;-82
2022/09/26 04:45:54;;;;;;;27.62;17.60;;;;;;;16.98;66.37;97801.25;4487004;32;20085;-82
2022/09/26 04:48:20;;;;;;;26.10;16.65;;;;;;;17.00;66.26;97795.78;4486787;32;20127;-82
2022/09/26 04:50:46;;;;;;;25.77;16.92;;;;;;;17.06;66.14;97790.69;4487014;32;20084;-82
2022/09/26 04:53:12;;;;;;;30.33;18.05;;;;;;;17.02;66.16;97784.00;4486953;32;20174;-82
2022/09/26 04:55:37;;;;;;;27.17;16.73;;;;;;;17.06;66.07;97790.69;4472743;32;20392;-82
2022/09/26 04:58:03;;;;;;;28.70;18.42;;;;;;;17.10;66.00;97789.41;4486745;32;20126;-82
2022/09/26 05:00:28;;;;;;;27.42;17.08;;;;;;;17.06;66.08;97806.66;4486868;32;20080;-82
2022/09/26 05:02:54;;;;;;;27.55;17.35;;;;;;;17.13;65.92;97798.06;4486841;32;20403;-82
2022/09/26 05:05:20;;;;;;;27.85;17.15;;;;;;;17.13;66.00;97798.06;4486717;31;20142;-81
2022/09/26 05:07:45;;;;;;;27.60;17.62;;;;;;;17.21;65.81;97793.69;4486809;32;20125;-83
2022/09/26 05:10:11;;;;;;;30.98;18.62;;;;;;;17.24;65.59;97789.88;4472323;32;20100;-84
2022/09/26 05:12:40;;;;;;;28.92;18.12;;;;;;;17.13;65.91;97793.59;4486679;32;20455;-83
2022/09/26 05:15:10;;;;;;;25.62;15.88;;;;;;;17.12;65.89;97788.44;4486443;32;20107;-81
2022/09/26 05:17:36;;;;;;;26.20;15.60;;;;;;;17.14;65.96;97789.13;4486257;32;20100;-80
2022/09/26 05:20:07;;;;;;;27.13;16.25;;;;;;;17.16;65.82;97784.47;4486234;32;20087;-80
2022/09/26 05:22:33;;;;;;;24.90;14.82;;;;;;;17.17;65.94;97796.78;4486403;32;20152;-80
2022/09/26 05:27:43;;;;;;;21.98;13.98;;;;;;;17.00;66.15;97783.31;4486228;32;20135;-80
2022/09/26 05:30:11;;;;;;;25.83;14.45;;;;;;;17.13;65.88;97780.28;4471925;32;20096;-80
2022/09/26 05:32:36;;;;;;;;;;;;;;;17.20;65.81;97777.88;4485472;32;20447;-79
2022/09/26 05:35:04;;;;;;;27.25;16.17;;;;;;;17.33;65.58;97770.34;4485703;32;19964;-80
2022/09/26 05:37:29;;;;;;;28.65;17.05;;;;;;;17.30;65.80;97775.97;4485280;32;20434;-80
2022/09/26 05:42:39;;;;;;;32.40;19.20;;;;;;;17.39;65.74;97766.25;4484300;32;20175;-81
2022/09/26 05:45:05;;;;;;;30.50;18.30;;;;;;;17.36;65.71;97783.34;4470876;32;20499;-80
2022/09/26 05:47:35;;;;;;;33.92;19.02;;;;;;;17.34;65.82;97774.66;4468853;32;20427;-81
2022/09/26 05:50:08;;;;;;;30.60;18.73;;;;;;;17.31;65.90;97777.66;4485168;32;20119;-81
2022/09/26 05:52:37;;;;;;;30.35;18.40;;;;;;;17.33;65.82;97796.16;4483481;32;20118;-81
2022/09/26 05:55:03;;;;;;;31.95;17.90;;;;;;;17.23;65.94;97801.50;4470892;32;20080;-80
2022/09/26 05:57:29;;;;;;;28.85;18.05;;;;;;;17.23;65.91;97807.69;4484990;32;20136;-81
2022/09/26 05:59:54;;;;;;;30.65;17.70;;;;;;;17.03;66.43;97812.25;4470938;32;20380;-80
2022/09/26 06:02:19;;;;;;;29.25;16.50;;;;;;;17.11;66.25;97806.19;4484967;32;20131;-83
2022/09/26 06:04:45;;;;;;;28.98;17.27;;;;;;;16.85;67.14;97790.94;4472204;32;20440;-90
2022/09/26 06:07:11;;;;;;;30.80;17.35;;;;;;;17.01;66.76;97768.19;4470002;32;20154;-89
2022/09/26 06:09:37;;;;;;;27.52;15.55;;;;;;;16.98;67.19;97779.97;4470037;32;20448;-87
2022/09/26 06:12:02;;;;;;;30.02;17.42;;;;;;;17.19;66.49;97765.53;4470076;32;20162;-84
2022/09/26 06:14:28;;;;;;;27.25;15.88;;;;;;;17.22;66.34;97758.09;4476248;32;20076;-83
2022/09/26 06:16:53;;;;;;;36.60;17.58;;;;;;;17.26;66.28;97759.47;4472655;32;20116;-84
2022/09/26 06:19:19;;;;;;;29.73;18.20;;;;;;;17.06;66.88;97758.75;4471952;32;20632;-84
2022/09/26 06:21:44;;;;;;;49.20;18.58;;;;;;;17.23;66.30;97754.47;4477661;32;20100;-83
2022/09/26 06:24:11;;;;;;;34.50;17.92;;;;;;;17.36;65.92;97755.88;4479655;32;20384;-79
2022/09/26 06:26:37;;;;;;;90.85;22.40;;;;;;;17.43;65.76;97749.81;4480003;32;20101;-88
2022/09/26 06:29:03;;;;;;;35.40;20.15;;;;;;;17.42;65.66;97750.81;4478894;32;20108;-82
2022/09/26 06:31:29;;;;;;;38.55;21.62;;;;;;;17.44;65.71;97743.50;4480130;32;20121;-83
2022/09/26 06:33:54;;;;;;;33.65;20.20;;;;;;;17.45;65.73;97752.31;4479060;32;20111;-83
2022/09/26 06:36:22;;;;;;;103.62;23.33;;;;;;;17.44;65.87;97750.63;4477198;32;20096;-84
2022/09/26 06:38:47;;;;;;;106.50;25.50;;;;;;;17.27;66.31;97765.63;4471014;32;20785;-83
2022/09/26 06:41:13;;;;;;;38.33;21.17;;;;;;;17.35;66.07;97768.37;4480366;32;20115;-84
2022/09/26 06:43:39;;;;;;;35.25;19.90;;;;;;;17.41;65.92;97765.09;4484777;32;20148;-84
2022/09/26 06:46:08;;;;;;;35.47;20.08;;;;;;;17.27;66.38;97771.78;4479553;32;20096;-84
2022/09/26 06:48:34;;;;;;;37.95;20.73;;;;;;;17.34;66.09;97781.84;4470448;32;20578;-84
2022/09/26 06:50:59;;;;;;;36.35;20.58;;;;;;;17.32;66.13;97774.00;4473917;32;20084;-84
2022/09/26 06:53:25;;;;;;;34.47;19.60;;;;;;;17.37;66.00;97774.38;4479916;32;20114;-83
2022/09/26 06:55:50;;;;;;;35.85;19.90;;;;;;;17.41;66.04;97780.25;4478738;32;20108;-87
2022/09/26 06:58:16;;;;;;;33.58;19.37;;;;;;;17.48;65.97;97767.97;4471242;32;20096;-85
2022/09/26 07:00:42;;;;;;;32.80;18.67;;;;;;;17.52;65.80;97758.72;4479911;32;20111;-88
2022/09/26 07:03:08;;;;;;;58.47;20.48;;;;;;;17.44;65.91;97754.16;4470467;32;20085;-86
2022/09/26 07:05:33;;;;;;;35.85;19.55;;;;;;;17.44;66.18;97763.94;4479407;32;20123;-86
2022/09/26 07:07:59;;;;;;;33.60;19.05;;;;;;;17.43;66.29;97770.28;4479609;32;20118;-85
2022/09/26 07:10:27;;;;;;;32.95;18.70;;;;;;;17.46;66.20;97773.47;4478162;32;20184;-87
2022/09/26 07:13:00;;;;;;;31.33;18.20;;;;;;;17.53;65.96;97765.72;4479463;32;20088;-88
2022/09/26 07:15:29;;;;;;;32.47;18.12;;;;;;;17.52;65.90;97758.72;4472217;32;20168;-85
2022/09/26 07:18:00;;;;;;;30.10;17.62;;;;;;;17.60;65.69;97765.94;4479093;32;20157;-81
2022/09/26 07:20:26;;;;;;;32.53;17.58;;;;;;;17.65;65.71;97766.31;4473774;32;20097;-84
2022/09/26 07:22:52;;;;;;;30.52;17.50;;;;;;;17.72;65.77;97766.53;4471663;32;20128;-83
2022/09/26 07:25:17;;;;;;;30.65;16.85;;;;;;;17.79;65.75;97770.25;4471866;32;20149;-80
2022/09/26 07:27:48;;;;;;;25.67;14.85;;;;;;;17.87;65.63;97757.03;4470622;32;20089;-80
2022/09/26 07:30:13;;;;;;;25.88;14.27;;;;;;;17.93;65.38;97764.41;4469439;32;20118;-78
2022/09/26 07:32:46;;;;;;;23.75;13.73;;;;;;;17.98;65.30;97772.78;4471398;32;20110;-80
2022/09/26 07:35:16;;;;;;;24.00;13.23;;;;;;;18.02;65.08;97776.81;4471682;32;20084;-81
2022/09/26 07:37:42;;;;;;;24.00;13.82;;;;;;;17.68;65.95;97782.00;4471504;32;20349;-79
2022/09/26 07:40:08;;;;;;;46.03;16.27;;;;;;;17.82;65.83;97789.41;4471625;32;20123;-81
2022/09/26 07:42:33;;;;;;;24.58;12.80;;;;;;;17.96;65.27;97793.38;4470394;32;20123;-80
2022/09/26 07:44:59;;;;;;;24.20;11.93;;;;;;;18.02;64.77;97794.59;4457276;32;20452;-80
2022/09/26 07:50:15;;;;;;;20.00;11.02;;;;;;;18.05;64.55;97797.78;4471542;32;20107;-81
2022/09/26 07:52:45;;;;;;;19.42;10.70;;;;;;;17.66;65.86;97813.28;4471625;32;20073;-81
2022/09/26 07:55:14;;;;;;;19.83;10.60;;;;;;;17.49;66.55;97810.44;4470379;32;20361;-81
2022/09/26 07:57:40;;;;;;;18.70;10.70;;;;;;;17.38;66.98;97808.00;4471396;32;20104;-83
2022/09/26 08:00:13;;;;;;;18.67;10.23;;;;;;;17.53;66.59;97807.47;4471239;32;20097;-82
2022/09/26 08:02:41;;;;;;;20.17;10.13;;;;;;;17.71;66.13;97810.12;4471582;32;20085;-82
2022/09/26 08:05:08;;;;;;;17.87;9.50;;;;;;;17.64;66.66;97809.91;4470249;32;20100;-82
2022/09/26 08:07:36;;;;;;;17.33;9.80;;;;;;;18.00;65.66;97810.75;4471429;32;20157;-82
2022/09/26 08:10:04;;;;;;;18.20;9.00;;;;;;;17.76;66.49;97800.69;4470389;32;20171;-82
2022/09/26 08:12:49;;;;;;;18.50;9.68;;;;;;;18.13;65.31;97802.34;4470197;32;20102;-82
2022/09/26 08:15:15;;;;;;;17.35;9.00;;;;;;;17.91;65.32;97805.53;4471104;32;20436;-82
2022/09/26 08:17:42;;;;;;;16.40;8.73;;;;;;;18.02;65.01;97807.91;4471635;32;20111;-82
2022/09/26 08:20:08;;;;;;;19.15;10.15;;;;;;;18.05;65.09;97807.63;4470301;32;20107;-81
2022/09/26 08:22:33;;;;;;;19.60;10.73;;;;;;;17.09;69.02;97816.16;4470386;32;20084;-82
2022/09/26 08:24:59;;;;;;;19.67;10.63;;;;;;;17.13;68.98;97806.06;4471507;32;20135;-82
2022/09/26 08:27:25;;;;;;;18.15;9.75;;;;;;;17.63;67.10;97810.91;4471613;32;20149;-82
2022/09/26 08:29:50;;;;;;;20.02;10.60;;;;;;;17.72;65.89;97814.50;4471421;32;20084;-83
2022/09/26 08:32:19;;;;;;;20.33;10.18;;;;;;;17.19;68.79;97810.78;4470391;32;20141;-82
2022/09/26 08:34:46;;;;;;;18.83;10.40;;;;;;;17.42;68.40;97819.19;4470007;32;20154;-82
2022/09/26 08:37:12;;;;;;;20.10;11.07;;;;;;;17.90;66.34;97817.16;4469902;32;20384;-82
2022/09/26 08:39:38;;;;;;;19.67;10.15;;;;;;;18.03;65.86;97814.94;4470789;32;20140;-82
2022/09/26 08:42:06;;;;;;;20.17;10.23;;;;;;;18.04;65.93;97816.59;4471134;32;20073;-82
2022/09/26 08:44:44;;;;;;;20.58;10.40;;;;;;;17.80;66.11;97811.88;4470991;32;20110;-82
2022/09/26 08:47:47;;;;;;;19.83;10.95;;;;;;;17.94;65.86;97807.88;4471210;32;20109;-82
2022/09/26 08:50:32;;;;;;;19.27;11.05;;;;;;;17.65;67.03;97815.09;4457064;32;20546;-82
2022/09/26 08:53:04;;;;;;;18.23;9.73;;;;;;;18.00;65.88;97816.09;4470063;32;20504;-82
2022/09/26 08:55:33;;;;;;;19.25;10.30;;;;;;;17.74;66.50;97810.66;4471090;32;20511;-82
2022/09/26 08:58:04;;;;;;;18.52;9.75;;;;;;;17.83;66.39;97814.25;4469773;32;20104;-82
2022/09/26 09:00:31;;;;;;;17.00;9.45;;;;;;;17.91;65.39;97818.84;4469703;32;20076;-82
2022/09/26 09:03:09;;;;;;;16.70;8.90;;;;;;;18.30;64.92;97816.62;4469788;32;20144;-82
2022/09/26 09:05:39;;;;;;;16.98;8.10;;;;;;;18.39;64.36;97825.53;4470868;32;20199;-82
2022/09/26 09:08:20;;;;;;;16.37;9.30;;;;;;;18.01;65.12;97820.41;4469728;32;20156;-82
2022/09/26 09:11:00;;;;;;;16.83;8.55;;;;;;;18.01;65.89;97824.91;4470800;32;20447;-82
2022/09/26 09:14:07;;;;;;;15.95;7.85;;;;;;;18.13;65.45;97826.34;4469753;32;20492;-82
2022/09/26 09:16:35;;;;;;;15.82;7.47;;;;;;;18.55;63.29;97824.78;4421939;32;20133;-82
2022/09/26 09:19:10;;;;;;;15.52;8.10;;;;;;;18.71;63.35;97818.69;4422032;32;20116;-82
2022/09/26 09:21:59;;;;;;;15.63;7.93;;;;;;;18.41;64.42;97824.38;4421901;32;20478;-82
2022/09/26 09:24:30;;;;;;;;;;;;;;;18.82;63.76;97818.47;4422405;32;20146;-82
2022/09/26 09:27:27;;;;;;;14.82;7.03;;;;;;;19.12;62.57;97809.06;4422128;32;19984;-81
2022/09/26 09:30:16;;;;;;;13.20;6.97;;;;;;;19.17;61.98;97814.75;4409279;32;20101;-82
2022/09/26 09:32:48;;;;;;;13.02;6.70;;;;;;;19.43;61.77;97805.78;4422071;32;20149;-82
2022/09/26 09:35:16;;;;;;;15.05;7.15;;;;;;;19.53;61.41;97811.00;4421828;32;20107;-82
2022/09/26 09:37:50;;;;;;;12.70;5.80;;;;;;;19.75;60.65;97806.87;4421719;32;20546;-82
2022/09/26 09:40:49;;;;;;;12.13;5.60;;;;;;;19.78;59.60;97804.72;4421900;32;20101;-82
2022/09/26 09:43:30;;;;;;;11.07;4.62;;;;;;;19.52;60.34;97807.50;4408919;32;20562;-82
2022/09/26 09:46:02;;;;;;;10.95;5.03;;;;;;;19.28;60.10;97794.94;4421720;32;20166;-82
2022/09/26 09:48:27;;;;;;;11.15;5.50;;;;;;;19.02;59.95;97790.50;4421901;32;20105;-82
2022/09/26 09:51:14;;;;;;;13.45;5.60;;;;;;;19.00;61.26;97794.34;4422059;32;20205;-82
2022/09/26 09:53:50;;;;;;;13.48;5.80;;;;;;;19.46;61.32;97792.13;4453813;32;20089;-82
2022/09/26 09:56:54;;;;;;;12.20;5.20;;;;;;;19.55;59.95;97798.34;4472398;32;20436;-82
2022/09/26 09:59:38;;;;;;;11.25;5.50;;;;;;;19.70;58.60;97788.66;4470035;32;20140;-82
2022/09/26 10:02:48;;;;;;;12.55;5.95;;;;;;;19.27;61.00;97787.09;4471047;32;20181;-82
2022/09/26 10:05:14;;;;;;;;;;;;;;;19.57;60.03;97790.97;4472905;32;20088;-82
2022/09/26 10:07:40;;;;;;;13.15;5.87;;;;;;;19.56;59.91;97783.97;4472699;32;20020;-82
2022/09/26 10:10:10;;;;;;;12.40;5.97;;;;;;;19.64;58.95;97786.62;4471323;32;20089;-82
2022/09/26 10:12:38;;;;;;;12.20;5.72;;;;;;;19.35;60.27;97782.56;4471334;32;20157;-82
2022/09/26 10:15:18;;;;;;;11.45;4.97;;;;;;;19.83;59.44;97780.16;4472562;32;20100;-82
2022/09/26 10:18:05;;;;;;;12.10;5.30;;;;;;;19.49;58.40;97785.59;4471284;32;20110;-82
2022/09/26 10:20:52;;;;;;;12.18;5.28;;;;;;;19.42;60.37;97790.78;4471151;32;20682;-82
2022/09/26 10:23:22;;;;;;;11.23;5.30;;;;;;;19.86;58.96;97777.16;4472713;32;20445;-82
2022/09/26 10:25:50;;;;;;;11.12;4.70;;;;;;;19.62;58.92;97791.31;4471396;32;20111;-82
2022/09/26 10:28:29;;;;;;;11.60;5.43;;;;;;;19.95;58.18;97784.19;4471232;32;20163;-82
2022/09/26 10:31:00;;;;;;;10.20;4.40;;;;;;;20.23;58.71;97783.81;4472320;32;20092;-82
2022/09/26 10:33:29;;;;;;;11.45;4.75;;;;;;;19.38;59.27;97779.59;4471257;32;20173;-82
2022/09/26 10:36:19;;;;;;;11.00;4.80;;;;;;;19.73;59.79;97779.50;4472386;32;20420;-82
2022/09/26 10:41:42;;;;;;;9.65;4.20;;;;;;;19.75;58.29;97783.66;4471230;32;20118;-83
2022/09/26 10:44:25;;;;;;;9.90;4.00;;;;;;;19.61;58.76;97787.81;4470915;32;20152;-82
2022/09/26 10:46:52;;;;;;;11.65;3.95;;;;;;;19.70;58.43;97791.34;4471256;32;20160;-82
2022/09/26 10:49:20;;;;;;;9.40;3.50;;;;;;;19.83;57.31;97790.84;4472347;32;20076;-82
2022/09/26 10:51:59;;;;;;;9.13;3.90;;;;;;;20.06;57.10;97791.00;4472190;32;20097;-83
2022/09/26 10:54:33;;;;;;;8.45;3.35;;;;;;;19.95;57.02;97776.16;4470920;32;20164;-82
2022/09/26 10:56:59;;;;;;;9.02;3.40;;;;;;;20.11;55.54;97777.13;4470919;32;20102;-83
2022/09/26 10:59:27;;;;;;;9.10;3.42;;;;;;;20.07;55.50;97782.00;4471945;32;20080;-83
2022/09/26 11:01:55;;;;;;;8.75;3.22;;;;;;;19.98;55.22;97793.69;4471662;32;20122;-82
2022/09/26 11:07:26;;;;;;;8.30;2.90;;;;;;;20.17;54.79;97795.19;4470953;32;20111;-82
2022/09/26 11:09:52;;;;;;;7.62;3.10;;;;;;;20.57;53.67;97786.25;4470672;32;20077;-83
2022/09/26 11:12:32;;;;;;;10.20;3.00;;;;;;;20.52;54.29;97793.13;4470798;32;20453;-82
2022/09/26 11:14:59;;;;;;;10.48;3.00;;;;;;;20.88;53.99;97790.84;4470648;32;20093;-82
2022/09/26 11:17:46;;;;;;;8.90;3.20;;;;;;;20.72;53.75;97794.41;4470609;32;20089;-82
2022/09/26 11:20:28;;;;;;;8.48;3.12;;;;;;;20.75;54.65;97811.97;4470412;32;20669;-82
2022/09/26 11:23:13;;;;;;;8.90;3.78;;;;;;;21.04;53.83;97807.84;4471773;32;20705;-83
2022/09/26 11:26:05;;;;;;;10.65;3.25;;;;;;;21.24;54.32;97805.56;4471906;32;20092;-83
2022/09/26 11:28:43;;;;;;;8.05;3.10;;;;;;;20.98;53.62;97799.50;4470589;32;20111;-83
2022/09/26 11:31:16;;;;;;;8.05;3.30;;;;;;;21.28;52.94;97797.00;4471743;32;20551;-82
2022/09/26 11:33:43;;;;;;;9.38;3.80;;;;;;;21.14;52.58;97797.75;4470667;32;20429;-82
2022/09/26 11:36:13;;;;;;;;;;;;;;;20.22;54.14;97796.34;4471872;32;20610;-83
2022/09/26 11:38:46;;;;;;;9.73;3.78;;;;;;;20.36;54.91;97799.34;4471742;32;20491;-82
2022/09/26 11:41:51;;;;;;;9.98;3.67;;;;;;;20.56;54.32;97797.13;4470503;32;20089;-83
2022/09/26 11:44:32;;;;;;;11.40;4.05;;;;;;;20.24;55.25;97798.84;4462988;32;20154;-82
2022/09/26 11:47:16;;;;;;;12.27;4.60;;;;;;;20.62;54.46;97789.25;4470596;32;20500;-83
2022/09/26 11:49:50;;;;;;;12.80;4.68;;;;;;;20.44;55.71;97785.94;4471747;32;20131;-83
2022/09/26 11:52:28;;;;;;;8.82;3.80;;;;;;;20.68;55.54;97787.72;4471716;32;20241;-82